Regen radar Meer informatie rain snow radar


Bezoek onze andere website:

Template documentation
and downloads

And another site



METAR rapporten vliegvelden

   
EBAW - Antwerp
Gewijzigd: 18-08-2018 18:20
Grotendeels bewolkt  
Grotendeels bewolkt  
   Wind: ZZW 9.3 km/h
Wind: ZZW 9.3 km/h
Temperatuur: 22°C
Dauwpunt: 14°C
Vochtigheid: 61%
Barometer: 1022 hPa
Bewolking: Grotendeels bewolkt
Zicht: meer dan 10 km
Bewolking: Licht bewolkt 3200 ft,
Grotendeels bewolkt 4000 ft
EBAW 181620Z 21005KT 180V260 9999 FEW032 BKN040 22/14 Q1022 NOSIG
EBLG - Li├Ęge
Gewijzigd: 18-08-2018 18:20
Licht bewolkt  
Licht bewolkt  
   Wind: Westen 14.8 km/h
Wind: Westen 14.8 km/h
Temperatuur: 22°C
Dauwpunt: 12°C
Vochtigheid: 53%
Barometer: 1022 hPa
Bewolking: Licht bewolkt
Zicht: meer dan 10 km
Bewolking: Licht bewolkt 4300 ft
EBLG 181620Z 28008KT 240V320 9999 FEW043 22/12 Q1022 NOSIG
EBCV - Mons/Bergen
Gewijzigd: 18-08-2018 18:25
Grotendeels bewolkt  
Grotendeels bewolkt  
   Wind: Westen 16.7 km/h
Wind: Westen 16.7 km/h
Temperatuur: 21°C
Dauwpunt: 13°C
Vochtigheid: 60%
Barometer: 1023 hPa
Bewolking: Grotendeels bewolkt
Zicht: meer dan 10 km
Bewolking: Grotendeels bewolkt 4000 ft
EBCV 181625Z AUTO 26009KT 9999 BKN040/// 21/13 Q1023 BLU
EHBK - Maastricht
Gewijzigd: 18-08-2018 18:25
Licht bewolkt  
Licht bewolkt  
   Wind: Westen 9.3 km/h
Wind: Westen 9.3 km/h
Temperatuur: 23°C
Dauwpunt: 13°C
Vochtigheid: 53%
Barometer: 1021 hPa
Bewolking: Licht bewolkt
Zicht: meer dan 10 km
Bewolking: Licht bewolkt 4100 ft
EHBK 181625Z AUTO 27005KT 220V310 9999 FEW041 23/13 Q1021 NOSIG
ELLX - Luxemburg
Gewijzigd: 18-08-2018 18:20
Helder  
Helder  
   Wind: Westen 14.8 km/h
Wind: Westen 14.8 km/h
Temperatuur: 24°C
Dauwpunt: 6°C
Vochtigheid: 31%
Barometer: 1022 hPa
Zicht: meer dan 10 km
Bewolking: Helder
ELLX 181620Z 28008KT 230V310 CAVOK 24/06 Q1022 NOSIG
EBOS - Oostende
Gewijzigd: 18-08-2018 18:20
Grotendeels bewolkt  
Grotendeels bewolkt  
   Wind: Westen 20.4 km/h
Wind: Westen 20.4 km/h
Temperatuur: 19°C
Dauwpunt: 15°C
Vochtigheid: 78%
Barometer: 1022 hPa
Bewolking: Grotendeels bewolkt
Zicht: meer dan 10 km
Bewolking: Licht bewolkt 3400 ft,
Grotendeels bewolkt 4100 ft
EBOS 181620Z 27011KT 9999 FEW034 BKN041 19/15 Q1022 NOSIG

Script ontwikkeld door  Saratoga-weather.org Aangepast voor de template door  Weerstation Leuven

U vindt ons ook hier:

Het Weer Aktueel

Weather Underground

Apparatuur in gebruik:

Weercomputer
apple

Webleverancier
weservit

apple

weservit